Time;durP1;ratioP1;P1;durP2;ratioP2;P2;SDS_P1;SDS_P2;PMS_P1;PMS_P2;Temp;Humidity;BMP_temperature;BMP_pressure;BME280_temperature;BME280_humidity;BME280_pressure;Samples;Min_cycle;Max_cycle;Signal;HPM_P1;HPM_P2
2022/03/19 00:04:43;;;;;;;32.13;11.87;;;;;;;;;;10435622;28;20033;-71
2022/03/19 00:09:47;;;;;;;27.67;11.48;;;;;;;;;;10421105;28;20061;-73
2022/03/19 00:14:50;;;;;;;28.00;11.13;;;;;;;;;;10428372;28;20493;-73
2022/03/19 00:19:53;;;;;;;36.73;13.40;;;;;;;;;;10441566;28;20043;-72
2022/03/19 00:24:58;;;;;;;34.67;13.27;;;;;;;;;;10440784;28;20029;-73
2022/03/19 00:30:01;;;;;;;33.83;13.27;;;;;;;;;;10417286;28;20048;-72
2022/03/19 00:35:05;;;;;;;43.73;14.47;;;;;;;;;;10422345;28;20049;-72
2022/03/19 00:40:11;;;;;;;30.88;12.02;;;;;;;;;;10410139;28;20180;-71
2022/03/19 00:45:15;;;;;;;37.10;14.27;;;;;;;;;;10452333;28;20064;-70
2022/03/19 00:50:19;;;;;;;38.13;15.27;;;;;;;;;;10425584;28;20469;-72
2022/03/19 00:55:23;;;;;;;37.75;14.80;;;;;;;;;;10429038;28;20049;-72
2022/03/19 01:00:27;;;;;;;41.57;16.17;;;;;;;;;;10432410;28;20102;-73
2022/03/19 01:05:30;;;;;;;45.47;16.23;;;;;;;;;;10444398;28;20091;-72
2022/03/19 01:10:35;;;;;;;45.83;16.50;;;;;;;;;;10445473;28;20044;-72
2022/03/19 01:15:39;;;;;;;37.17;13.97;;;;;;;;;;10421880;28;20041;-71
2022/03/19 01:20:42;;;;;;;48.63;17.73;;;;;;;;;;10437419;28;20534;-72
2022/03/19 01:25:46;;;;;;;46.30;17.37;;;;;;;;;;10449754;28;20158;-73
2022/03/19 01:30:49;;;;;;;;;;;;;;;;;;10467439;22;20052;-78
2022/03/19 01:35:52;;;;;;;;;;;;;;;;;;10450009;28;20462;-78
2022/03/19 01:40:55;;;;;;;;;;;;;;;;;;10496823;28;19925;-77
2022/03/19 01:45:59;;;;;;;;;;;;;;;;;;10518939;28;19920;-77
2022/03/19 01:51:03;;;;;;;;;;;;;;;;;;10494179;28;20545;-80
2022/03/19 01:56:10;;;;;;;;;;;;;;;;;;10469771;28;20300;-80
2022/03/19 02:01:14;;;;;;;;;;;;;;;;;;10512071;28;19997;-78
2022/03/19 02:06:17;;;;;;;;;;;;;;;;;;10485038;28;19950;-79
2022/03/19 02:11:20;;;;;;;;;;;;;;;;;;10475204;28;19982;-77
2022/03/19 02:16:24;;;;;;;;;;;;;;;;;;10490837;28;19924;-78
2022/03/19 02:21:29;;;;;;;;;;;;;;;;;;10476825;28;20449;-78
2022/03/19 02:26:33;;;;;;;;;;;;;;;;;;10489601;28;19920;-77
2022/03/19 02:31:40;;;;;;;48.20;17.77;;;;;;;;;;10485587;28;19935;-77
2022/03/19 02:36:43;;;;;;;32.27;11.97;;;;;;;;;;10490224;28;20511;-79
2022/03/19 02:42:07;;;;;;;64.17;21.80;;;;;;;;;;10463322;28;20061;-81
2022/03/19 02:47:12;;;;;;;58.88;19.52;;;;;;;;;;10483712;28;20369;-80
2022/03/19 02:52:15;;;;;;;55.67;20.97;;;;;;;;;;10484463;28;20087;-77
2022/03/19 02:57:19;;;;;;;63.25;21.27;;;;;;;;;;10471481;28;20061;-81
2022/03/19 03:02:24;;;;;;;61.83;20.83;;;;;;;;;;10494099;28;20029;-82
2022/03/19 03:07:28;;;;;;;62.67;21.80;;;;;;;;;;10477031;28;20068;-80
2022/03/19 03:12:31;;;;;;;61.33;20.77;;;;;;;;;;10483513;28;20116;-78
2022/03/19 03:17:35;;;;;;;66.67;22.00;;;;;;;;;;10482634;28;20056;-78
2022/03/19 03:22:42;;;;;;;;;;;;;;;;;;10526199;28;20059;-77
2022/03/19 03:27:46;;;;;;;;;;;;;;;;;;10513225;28;19920;-79
2022/03/19 03:32:51;;;;;;;57.77;17.60;;;;;;;;;;10476299;28;19927;-80
2022/03/19 03:37:54;;;;;;;60.60;19.53;;;;;;;;;;10469281;28;20037;-79
2022/03/19 03:42:56;;;;;;;59.80;17.93;;;;;;;;;;10501765;28;20120;-77
2022/03/19 03:48:01;;;;;;;60.57;19.47;;;;;;;;;;10472974;28;20043;-80
2022/03/19 03:53:04;;;;;;;62.47;19.57;;;;;;;;;;10489646;28;20032;-80
2022/03/19 03:58:08;;;;;;;46.33;17.15;;;;;;;;;;10472128;28;20067;-80
2022/03/19 04:03:13;;;;;;;50.70;17.67;;;;;;;;;;10493038;28;20497;-79
2022/03/19 04:08:16;;;;;;;62.10;20.97;;;;;;;;;;10469762;28;20044;-78
2022/03/19 04:13:19;;;;;;;56.87;18.77;;;;;;;;;;10471919;28;20041;-77
2022/03/19 04:18:26;;;;;;;55.30;17.30;;;;;;;;;;10515242;28;20048;-78
2022/03/19 04:23:29;;;;;;;55.17;18.00;;;;;;;;;;10541525;28;20068;-79
2022/03/19 04:28:33;;;;;;;53.90;17.00;;;;;;;;;;10543878;28;20019;-77
2022/03/19 04:33:37;;;;;;;47.30;16.93;;;;;;;;;;10479404;28;20487;-77
2022/03/19 04:38:40;;;;;;;;;;;;;;;;;;10479011;28;20109;-78
2022/03/19 04:43:43;;;;;;;46.73;15.37;;;;;;;;;;10484336;28;20000;-79
2022/03/19 04:48:47;;;;;;;48.93;18.43;;;;;;;;;;10457490;28;20037;-79
2022/03/19 04:53:50;;;;;;;;;;;;;;;;;;10490095;28;20025;-78
2022/03/19 04:58:54;;;;;;;49.53;15.10;;;;;;;;;;10517011;28;19997;-79
2022/03/19 05:03:59;;;;;;;43.03;14.48;;;;;;;;;;10494703;28;20036;-79
2022/03/19 05:14:23;;;;;;;43.13;15.53;;;;;;;;;;10492416;28;20136;-75
2022/03/19 05:19:28;;;;;;;42.23;15.23;;;;;;;;;;10461971;28;20445;-76
2022/03/19 05:24:31;;;;;;;48.77;15.00;;;;;;;;;;10498841;28;20025;-76
2022/03/19 05:29:33;;;;;;;49.13;16.43;;;;;;;;;;10472173;28;20047;-80
2022/03/19 05:34:38;;;;;;;47.47;15.60;;;;;;;;;;10460117;28;20441;-80
2022/03/19 05:39:41;;;;;;;38.90;13.50;;;;;;;;;;10478496;22;20390;-71
2022/03/19 05:44:44;;;;;;;44.50;15.77;;;;;;;;;;10436851;28;20033;-73
2022/03/19 05:49:48;;;;;;;45.57;14.97;;;;;;;;;;10422112;28;20059;-74
2022/03/19 05:54:52;;;;;;;43.70;15.03;;;;;;;;;;10438546;28;23128;-74
2022/03/19 05:59:55;;;;;;;;;;;;;;;;;;10422270;28;20039;-74
2022/03/19 06:05:03;;;;;;;42.47;14.43;;;;;;;;;;10429371;28;19986;-72
2022/03/19 06:10:07;;;;;;;47.00;15.80;;;;;;;;;;10433441;28;20053;-75
2022/03/19 06:15:12;;;;;;;45.07;16.03;;;;;;;;;;10434812;28;20468;-72
2022/03/19 06:20:22;;;;;;;37.40;13.97;;;;;;;;;;10446052;28;20041;-71
2022/03/19 06:25:25;;;;;;;46.10;15.70;;;;;;;;;;10442860;28;20029;-73
2022/03/19 06:30:31;;;;;;;45.20;16.20;;;;;;;;;;10442638;28;20047;-73
2022/03/19 06:40:59;;;;;;;38.17;14.35;;;;;;;;;;10438010;28;20037;-72
2022/03/19 06:46:01;;;;;;;;;;;;;;;;;;10446259;28;20501;-75
2022/03/19 06:51:06;;;;;;;43.15;15.55;;;;;;;;;;10424275;28;19928;-74
2022/03/19 06:56:08;;;;;;;;;;;;;;;;;;10440755;28;20183;-72
2022/03/19 07:01:15;;;;;;;36.13;14.57;;;;;;;;;;10452326;28;19920;-72
2022/03/19 07:06:20;;;;;;;46.47;22.30;;;;;;;;;;10408940;28;20431;-72
2022/03/19 07:11:43;;;;;;;43.40;22.95;;;;;;;;;;10441413;28;20958;-72
2022/03/19 07:16:46;;;;;;;34.17;15.80;;;;;;;;;;10430171;28;20025;-74
2022/03/19 07:21:50;;;;;;;35.33;15.60;;;;;;;;;;10462261;28;20067;-75
2022/03/19 07:26:56;;;;;;;29.17;13.63;;;;;;;;;;10435806;28;20135;-72
2022/03/19 07:31:59;;;;;;;28.17;14.88;;;;;;;;;;10422662;28;20028;-73
2022/03/19 07:37:03;;;;;;;29.90;14.03;;;;;;;;;;10423020;28;20603;-73
2022/03/19 07:42:06;;;;;;;29.23;14.50;;;;;;;;;;10452121;28;20041;-73
2022/03/19 07:47:09;;;;;;;30.13;14.83;;;;;;;;;;10440893;28;20072;-74
2022/03/19 07:52:14;;;;;;;30.00;15.02;;;;;;;;;;10441220;28;20295;-75
2022/03/19 07:57:17;;;;;;;29.40;15.40;;;;;;;;;;10422137;28;20071;-76
2022/03/19 08:02:22;;;;;;;32.22;19.58;;;;;;;;;;10426240;28;20460;-75
2022/03/19 08:07:24;;;;;;;;;;;;;;;;;;10422933;28;20047;-74
2022/03/19 08:12:29;;;;;;;32.17;17.10;;;;;;;;;;10446816;28;19974;-74
2022/03/19 08:17:32;;;;;;;28.20;15.60;;;;;;;;;;10437729;28;20471;-73
2022/03/19 08:22:36;;;;;;;31.10;19.38;;;;;;;;;;10439245;28;21064;-75
2022/03/19 08:27:39;;;;;;;;;;;;;;;;;;10424709;28;20106;-73
2022/03/19 08:32:41;;;;;;;;;;;;;;;;;;10448514;28;19940;-75
2022/03/19 08:37:44;;;;;;;;;;;;;;;;;;10437271;28;19925;-74
2022/03/19 08:42:52;;;;;;;24.73;15.45;;;;;;;;;;10428164;28;19928;-75
2022/03/19 08:47:56;;;;;;;26.83;15.75;;;;;;;;;;10415459;28;20045;-73
2022/03/19 08:52:59;;;;;;;28.52;16.55;;;;;;;;;;10422485;28;20472;-73
2022/03/19 08:58:03;;;;;;;;;;;;;;;;;;10435197;28;20033;-73
2022/03/19 09:03:07;;;;;;;26.08;16.35;;;;;;;;;;10450811;28;19928;-73
2022/03/19 09:08:10;;;;;;;23.00;15.73;;;;;;;;;;10445788;28;20139;-74
2022/03/19 09:13:13;;;;;;;24.90;16.40;;;;;;;;;;10446729;28;20040;-75
2022/03/19 09:18:18;;;;;;;24.20;16.02;;;;;;;;;;10431851;28;20067;-74
2022/03/19 09:23:21;;;;;;;25.95;16.33;;;;;;;;;;10449386;28;20536;-75
2022/03/19 09:28:23;;;;;;;25.98;17.10;;;;;;;;;;10438572;28;20044;-70
2022/03/19 09:33:28;;;;;;;27.52;17.20;;;;;;;;;;10423306;28;20063;-75
2022/03/19 09:38:31;;;;;;;26.52;18.20;;;;;;;;;;10422902;28;20036;-76
2022/03/19 09:43:34;;;;;;;23.75;17.77;;;;;;;;;;10442052;28;20045;-75
2022/03/19 09:48:38;;;;;;;23.60;15.52;;;;;;;;;;10419576;28;20629;-74
2022/03/19 09:53:42;;;;;;;24.25;16.90;;;;;;;;;;10447784;28;20033;-74
2022/03/19 09:59:06;;;;;;;20.58;14.80;;;;;;;;;;10449647;28;20123;-75
2022/03/19 10:04:12;;;;;;;22.67;15.05;;;;;;;;;;10432298;28;20043;-71
2022/03/19 10:09:19;;;;;;;20.52;14.70;;;;;;;;;;10425810;28;20102;-73
2022/03/19 10:14:23;;;;;;;20.27;14.68;;;;;;;;;;10446422;28;20037;-73
2022/03/19 10:19:30;;;;;;;22.23;14.23;;;;;;;;;;10430972;28;20041;-73
2022/03/19 10:24:36;;;;;;;21.58;14.30;;;;;;;;;;10444831;28;20044;-74
2022/03/19 10:29:41;;;;;;;23.52;14.68;;;;;;;;;;10423878;28;20140;-74
2022/03/19 10:34:46;;;;;;;19.98;13.30;;;;;;;;;;10440723;28;20472;-72
2022/03/19 10:39:49;;;;;;;20.58;14.10;;;;;;;;;;10424413;28;20037;-73
2022/03/19 10:44:52;;;;;;;20.17;13.80;;;;;;;;;;10448099;28;20404;-73
2022/03/19 10:50:01;;;;;;;17.42;12.35;;;;;;;;;;10435671;28;20048;-74
2022/03/19 10:55:04;;;;;;;17.40;12.65;;;;;;;;;;10443507;28;20190;-74
2022/03/19 11:00:08;;;;;;;17.20;13.18;;;;;;;;;;10427155;28;20097;-75
2022/03/19 11:05:12;;;;;;;16.83;12.68;;;;;;;;;;10434008;28;20044;-73
2022/03/19 11:10:15;;;;;;;19.25;12.98;;;;;;;;;;10440694;28;20110;-74
2022/03/19 11:15:19;;;;;;;17.27;12.68;;;;;;;;;;10420901;28;20037;-73
2022/03/19 11:20:24;;;;;;;20.60;13.77;;;;;;;;;;10443544;28;20128;-73
2022/03/19 11:25:30;;;;;;;17.98;13.23;;;;;;;;;;10423588;28;20037;-73
2022/03/19 11:30:34;;;;;;;22.75;12.85;;;;;;;;;;10442444;28;20050;-73
2022/03/19 11:35:39;;;;;;;23.42;13.00;;;;;;;;;;10441317;28;20511;-72
2022/03/19 11:40:45;;;;;;;18.48;13.15;;;;;;;;;;10431604;28;20049;-73
2022/03/19 11:45:54;;;;;;;19.02;12.35;;;;;;;;;;10436844;28;20451;-73
2022/03/19 11:50:56;;;;;;;;;;;;;;;;;;10435415;28;20040;-72
2022/03/19 11:56:03;;;;;;;17.65;12.70;;;;;;;;;;10429121;28;19920;-73
2022/03/19 12:01:06;;;;;;;20.95;13.02;;;;;;;;;;10438251;28;20085;-72
2022/03/19 12:06:09;;;;;;;;;;;;;;;;;;10438896;28;20039;-72
2022/03/19 12:11:12;;;;;;;;;;;;;;;;;;10454531;28;19927;-73
2022/03/19 12:16:16;;;;;;;;;;;;;;;;;;10449058;28;19929;-72
2022/03/19 12:21:21;;;;;;;;;;;;;;;;;;10429378;28;19921;-73
2022/03/19 12:26:23;;;;;;;;;;;;;;;;;;10443780;28;20003;-72
2022/03/19 12:31:32;;;;;;;17.30;12.20;;;;;;;;;;10445170;28;20282;-72
2022/03/19 12:36:35;;;;;;;19.40;11.65;;;;;;;;;;10421464;28;20136;-72
2022/03/19 12:41:39;;;;;;;20.73;12.40;;;;;;;;;;10441202;28;20477;-76
2022/03/19 12:47:05;;;;;;;21.33;12.70;;;;;;;;;;10446349;28;20033;-72
2022/03/19 12:52:08;;;;;;;19.58;11.95;;;;;;;;;;10424919;28;20041;-72
2022/03/19 12:57:13;;;;;;;22.27;13.45;;;;;;;;;;10444314;28;20037;-72
2022/03/19 13:02:25;;;;;;;21.90;13.93;;;;;;;;;;10445000;28;20519;-70
2022/03/19 13:07:28;;;;;;;25.23;14.75;;;;;;;;;;10425199;28;20037;-76
2022/03/19 13:12:31;;;;;;;23.25;13.65;;;;;;;;;;10434545;28;20045;-76
2022/03/19 13:17:35;;;;;;;23.25;13.23;;;;;;;;;;10450457;28;20088;-72
2022/03/19 13:22:41;;;;;;;23.05;12.82;;;;;;;;;;10451481;28;20049;-73
2022/03/19 13:27:44;;;;;;;;;;;;;;;;;;10444826;28;20043;-72
2022/03/19 13:32:50;;;;;;;26.63;13.23;;;;;;;;;;10479874;22;19943;-69
2022/03/19 13:37:53;;;;;;;22.20;12.02;;;;;;;;;;10548450;28;20039;-70
2022/03/19 13:42:56;;;;;;;23.45;11.38;;;;;;;;;;10537025;28;20909;-69
2022/03/19 13:48:04;;;;;;;17.27;9.77;;;;;;;;;;10540902;28;20039;-70
2022/03/19 13:53:07;;;;;;;16.30;9.38;;;;;;;;;;10557038;28;20081;-70
2022/03/19 13:58:10;;;;;;;19.63;10.10;;;;;;;;;;10554724;28;20032;-70
2022/03/19 14:03:16;;;;;;;14.32;8.10;;;;;;;;;;10555047;28;20111;-69
2022/03/19 14:08:21;;;;;;;19.60;10.27;;;;;;;;;;10533896;28;20197;-69
2022/03/19 14:13:25;;;;;;;17.92;9.35;;;;;;;;;;10546619;28;20044;-69
2022/03/19 14:18:30;;;;;;;21.30;10.43;;;;;;;;;;10537985;28;20039;-69
2022/03/19 14:23:35;;;;;;;19.80;10.55;;;;;;;;;;10550090;28;20063;-70
2022/03/19 14:28:40;;;;;;;21.02;10.77;;;;;;;;;;10538789;28;20039;-70
2022/03/19 14:33:44;;;;;;;20.83;9.50;;;;;;;;;;10558713;28;20035;-69
2022/03/19 14:38:49;;;;;;;23.10;11.38;;;;;;;;;;10540755;28;20040;-71
2022/03/19 14:43:53;;;;;;;21.85;11.43;;;;;;;;;;10565944;28;20028;-70
2022/03/19 14:48:57;;;;;;;21.85;11.85;;;;;;;;;;10563115;28;20557;-70
2022/03/19 14:54:02;;;;;;;22.95;12.30;;;;;;;;;;10563476;28;20088;-69
2022/03/19 14:59:05;;;;;;;26.30;12.77;;;;;;;;;;10548263;28;20385;-69
2022/03/19 15:04:15;;;;;;;25.25;12.15;;;;;;;;;;10549080;28;20081;-69
2022/03/19 15:09:38;;;;;;;26.17;13.25;;;;;;;;;;10543815;28;20047;-69
2022/03/19 15:14:40;;;;;;;30.13;14.90;;;;;;;;;;10570389;28;20491;-70
2022/03/19 15:19:45;;;;;;;24.60;12.03;;;;;;;;;;10549106;28;20433;-69
2022/03/19 15:24:48;;;;;;;30.73;15.55;;;;;;;;;;10568966;28;20068;-69
2022/03/19 15:29:52;;;;;;;;;;;;;;;;;;10566812;28;20138;-69
2022/03/19 15:34:56;;;;;;;25.00;11.27;;;;;;;;;;10572223;28;19923;-70
2022/03/19 15:39:59;;;;;;;32.15;14.77;;;;;;;;;;10561642;28;20036;-69
2022/03/19 15:45:02;;;;;;;37.20;16.90;;;;;;;;;;10548723;28;20036;-69
2022/03/19 15:50:07;;;;;;;32.43;14.60;;;;;;;;;;10538684;28;20643;-70
2022/03/19 15:55:11;;;;;;;34.05;15.48;;;;;;;;;;10540409;28;20092;-69
2022/03/19 16:00:14;;;;;;;37.42;17.50;;;;;;;;;;10558460;28;20066;-69
2022/03/19 16:05:19;;;;;;;25.90;10.90;;;;;;;;;;10554164;27;20456;-70
2022/03/19 16:10:22;;;;;;;38.15;15.75;;;;;;;;;;10561421;28;20559;-70
2022/03/19 16:15:25;;;;;;;35.92;12.65;;;;;;;;;;10537346;28;20176;-70
2022/03/19 16:20:29;;;;;;;36.45;12.65;;;;;;;;;;10543520;28;20105;-70
2022/03/19 16:25:32;;;;;;;33.95;13.43;;;;;;;;;;10556980;28;20031;-70
2022/03/19 16:30:35;;;;;;;37.00;15.60;;;;;;;;;;10546629;28;20075;-70
2022/03/19 16:35:39;;;;;;;31.65;13.48;;;;;;;;;;10529284;28;20460;-68
2022/03/19 16:40:43;;;;;;;28.80;12.15;;;;;;;;;;10551158;28;20054;-69
2022/03/19 16:45:46;;;;;;;;;;;;;;;;;;10535712;28;20039;-68
2022/03/19 16:50:51;;;;;;;36.67;14.32;;;;;;;;;;10538986;28;20336;-70
2022/03/19 16:55:55;;;;;;;35.85;14.30;;;;;;;;;;10552726;28;20050;-70
2022/03/19 17:00:58;;;;;;;35.85;15.23;;;;;;;;;;10540395;28;20115;-71
2022/03/19 17:06:04;;;;;;;37.15;14.93;;;;;;;;;;10550375;28;20027;-71
2022/03/19 17:11:07;;;;;;;143.50;23.30;;;;;;;;;;10539120;28;20062;-67
2022/03/19 17:16:10;;;;;;;33.25;14.05;;;;;;;;;;10543145;28;20381;-71
2022/03/19 17:21:16;;;;;;;34.20;15.10;;;;;;;;;;10550036;28;20517;-69
2022/03/19 17:26:19;;;;;;;35.10;13.95;;;;;;;;;;10538815;28;20096;-70
2022/03/19 17:31:22;;;;;;;40.63;14.32;;;;;;;;;;10551728;28;20051;-70
2022/03/19 17:36:27;;;;;;;30.70;12.85;;;;;;;;;;10547676;28;20074;-70
2022/03/19 17:41:29;;;;;;;24.33;9.95;;;;;;;;;;10533715;28;20112;-70
2022/03/19 17:46:32;;;;;;;32.40;13.63;;;;;;;;;;10555371;28;20032;-69
2022/03/19 17:51:37;;;;;;;35.20;13.83;;;;;;;;;;10532899;28;20032;-70
2022/03/19 17:56:39;;;;;;;;;;;;;;;;;;10532691;28;20048;-69
2022/03/19 18:01:42;;;;;;;29.23;12.48;;;;;;;;;;10547763;28;19924;-70
2022/03/19 18:06:47;;;;;;;34.57;13.00;;;;;;;;;;10545506;28;20043;-68
2022/03/19 18:11:50;;;;;;;32.35;13.88;;;;;;;;;;10545187;28;20703;-70
2022/03/19 18:16:53;;;;;;;31.87;13.83;;;;;;;;;;10552355;28;20046;-69
2022/03/19 18:21:58;;;;;;;33.13;14.57;;;;;;;;;;10538912;28;20210;-69
2022/03/19 18:27:01;;;;;;;29.83;12.82;;;;;;;;;;10563020;28;20035;-68
2022/03/19 18:32:05;;;;;;;33.63;14.27;;;;;;;;;;10564929;27;20115;-70
2022/03/19 18:37:13;;;;;;;34.23;13.50;;;;;;;;;;10557494;28;20457;-70
2022/03/19 18:42:16;;;;;;;34.95;13.15;;;;;;;;;;10545843;28;20319;-70
2022/03/19 18:47:19;;;;;;;34.55;13.30;;;;;;;;;;10558461;28;20051;-69
2022/03/19 18:52:24;;;;;;;33.08;12.13;;;;;;;;;;10553999;28;20051;-68
2022/03/19 18:57:28;;;;;;;28.45;11.30;;;;;;;;;;10560162;28;20036;-70
2022/03/19 19:02:30;;;;;;;29.70;12.20;;;;;;;;;;10559354;27;20071;-70
2022/03/19 19:07:35;;;;;;;29.67;12.30;;;;;;;;;;10550812;28;20294;-70
2022/03/19 19:12:38;;;;;;;29.63;11.77;;;;;;;;;;10541846;28;20054;-69
2022/03/19 19:17:41;;;;;;;25.98;9.98;;;;;;;;;;10555397;28;20028;-69
2022/03/19 19:22:45;;;;;;;28.97;10.77;;;;;;;;;;10554419;28;20085;-69
2022/03/19 19:27:48;;;;;;;;;;;;;;;;;;10541310;28;20439;-71
2022/03/19 19:32:51;;;;;;;22.63;9.20;;;;;;;;;;10534913;28;19923;-69
2022/03/19 19:37:56;;;;;;;23.55;9.35;;;;;;;;;;10568114;22;20255;-73
2022/03/19 19:42:58;;;;;;;;;;;;;;;;;;10546229;28;20367;-74
2022/03/19 19:48:22;;;;;;;29.77;10.70;;;;;;;;;;10564686;28;20232;-74
2022/03/19 19:53:27;;;;;;;30.88;11.73;;;;;;;;;;10551917;28;20067;-73
2022/03/19 19:58:37;;;;;;;23.00;9.63;;;;;;;;;;10564072;28;20032;-74
2022/03/19 20:03:40;;;;;;;21.58;7.40;;;;;;;;;;10559614;28;20064;-73
2022/03/19 20:08:45;;;;;;;24.90;10.13;;;;;;;;;;10560549;28;20032;-73
2022/03/19 20:13:47;;;;;;;;;;;;;;;;;;10571859;28;20044;-76
2022/03/19 20:18:50;;;;;;;29.27;11.15;;;;;;;;;;10546108;28;20139;-74
2022/03/19 20:23:58;;;;;;;28.13;10.63;;;;;;;;;;10561380;28;20035;-76
2022/03/19 20:29:01;;;;;;;25.45;10.23;;;;;;;;;;10562234;28;20042;-73
2022/03/19 20:34:04;;;;;;;24.60;10.80;;;;;;;;;;10547317;28;20049;-75
2022/03/19 20:39:10;;;;;;;27.73;9.80;;;;;;;;;;10559590;28;20055;-74
2022/03/19 20:44:13;;;;;;;28.13;10.23;;;;;;;;;;10541534;28;20036;-74
2022/03/19 20:54:36;;;;;;;26.50;10.80;;;;;;;;;;10562105;28;20123;-74
2022/03/19 20:59:39;;;;;;;25.17;9.93;;;;;;;;;;10564243;28;20466;-76
2022/03/19 21:04:43;;;;;;;18.77;6.53;;;;;;;;;;10564762;27;20104;-75
2022/03/19 21:09:47;;;;;;;23.67;8.10;;;;;;;;;;10546066;28;20439;-74
2022/03/19 21:14:50;;;;;;;24.08;10.55;;;;;;;;;;10554325;28;20031;-73
2022/03/19 21:19:53;;;;;;;29.00;10.70;;;;;;;;;;10548746;28;20423;-73
2022/03/19 21:24:57;;;;;;;24.93;10.03;;;;;;;;;;10542288;28;20035;-74
2022/03/19 21:30:00;;;;;;;;;;;;;;;;;;10564824;28;20058;-73
2022/03/19 21:35:03;;;;;;;27.87;9.80;;;;;;;;;;10556259;28;20298;-75
2022/03/19 21:45:30;;;;;;;25.57;10.03;;;;;;;;;;10541443;28;20167;-75
2022/03/19 21:50:33;;;;;;;26.02;9.18;;;;;;;;;;10558882;28;20067;-75
2022/03/19 21:55:37;;;;;;;31.27;11.20;;;;;;;;;;10546634;28;20523;-74
2022/03/19 22:00:41;;;;;;;26.90;10.10;;;;;;;;;;10540251;28;20179;-75
2022/03/19 22:05:44;;;;;;;33.20;10.57;;;;;;;;;;10555653;28;20035;-74
2022/03/19 22:10:48;;;;;;;18.90;6.07;;;;;;;;;;10552576;28;20038;-73
2022/03/19 22:15:52;;;;;;;30.75;10.45;;;;;;;;;;10561101;28;20043;-75
2022/03/19 22:20:58;;;;;;;25.20;10.13;;;;;;;;;;10556207;28;20020;-72
2022/03/19 22:26:02;;;;;;;26.47;11.27;;;;;;;;;;10551104;28;20052;-71
2022/03/19 22:31:06;;;;;;;27.63;10.95;;;;;;;;;;10570961;28;20051;-71
2022/03/19 22:36:11;;;;;;;27.47;11.37;;;;;;;;;;10565639;28;20445;-72
2022/03/19 22:41:15;;;;;;;32.27;11.67;;;;;;;;;;10584710;28;20039;-71
2022/03/19 22:46:17;;;;;;;30.15;11.05;;;;;;;;;;10545154;28;20047;-72
2022/03/19 22:51:20;;;;;;;31.07;11.27;;;;;;;;;;10537520;28;20046;-72
2022/03/19 22:56:25;;;;;;;30.40;10.57;;;;;;;;;;10547846;28;20051;-72
2022/03/19 23:01:27;;;;;;;;;;;;;;;;;;10530617;28;20066;-73
2022/03/19 23:06:32;;;;;;;26.13;9.87;;;;;;;;;;10540795;28;20435;-72
2022/03/19 23:11:38;;;;;;;28.70;10.53;;;;;;;;;;10540001;28;20032;-73
2022/03/19 23:16:41;;;;;;;27.27;9.77;;;;;;;;;;10544440;28;20159;-71
2022/03/19 23:21:44;;;;;;;25.20;8.40;;;;;;;;;;10563049;28;20084;-75
2022/03/19 23:26:49;;;;;;;25.07;7.63;;;;;;;;;;10538656;28;20415;-74
2022/03/19 23:31:53;;;;;;;20.40;8.50;;;;;;;;;;10562576;28;20085;-73
2022/03/19 23:36:56;;;;;;;24.77;9.35;;;;;;;;;;10540784;28;20047;-71
2022/03/19 23:42:00;;;;;;;20.97;8.33;;;;;;;;;;10538730;22;20052;-73
2022/03/19 23:47:03;;;;;;;;;;;;;;;;;;10521220;28;20043;-74
2022/03/19 23:52:06;;;;;;;23.77;9.77;;;;;;;;;;10496799;28;20286;-75
2022/03/19 23:57:31;;;;;;;18.47;7.07;;;;;;;;;;10517011;28;20680;-74
